Time;durP1;ratioP1;P1;durP2;ratioP2;P2;SDS_P1;SDS_P2;PMS_P1;PMS_P2;Temp;Humidity;BMP_temperature;BMP_pressure;BME280_temperature;BME280_humidity;BME280_pressure;Samples;Min_cycle;Max_cycle;Signal;HPM_P1;HPM_P2
2024/01/02 00:01:25;;;;;;;4.17;1.00;;;4.60;1.00;;;;;;8234271;28;20622;-82
2024/01/02 00:05:29;;;;;;;3.83;1.30;;;4.60;1.00;;;;;;8262920;28;20204;-82
2024/01/02 00:09:29;;;;;;;2.67;1.13;;;4.60;78.00;;;;;;8247990;28;20210;-82
2024/01/02 00:13:30;;;;;;;4.77;1.60;;;4.50;99.90;;;;;;8248164;28;20223;-82
2024/01/02 00:17:31;;;;;;;3.23;0.97;;;4.50;95.30;;;;;;8243324;28;20235;-82
2024/01/02 00:21:32;;;;;;;5.83;1.57;;;4.60;99.90;;;;;;8246661;28;20195;-82
2024/01/02 00:25:33;;;;;;;6.90;1.50;;;4.50;99.90;;;;;;8244591;28;20203;-82
2024/01/02 00:29:34;;;;;;;3.87;1.50;;;4.40;1.00;;;;;;8256860;28;20326;-82
2024/01/02 00:33:35;;;;;;;2.37;1.50;;;4.30;1.00;;;;;;8241324;28;20627;-82
2024/01/02 00:37:36;;;;;;;3.30;1.30;;;4.20;99.90;;;;;;8244581;28;20227;-82
2024/01/02 00:41:42;;;;;;;5.97;1.83;;;4.20;99.90;;;;;;8242964;28;20197;-82
2024/01/02 00:45:42;;;;;;;7.07;1.97;;;4.20;99.90;;;;;;8244879;28;20192;-82
2024/01/02 00:49:45;;;;;;;10.10;2.03;;;4.30;99.90;;;;;;8246692;28;20278;-82
2024/01/02 00:53:49;;;;;;;4.60;2.00;;;4.40;1.00;;;;;;8256883;28;20219;-82
2024/01/02 00:57:53;;;;;;;5.70;1.70;;;4.50;99.90;;;;;;8248956;28;20267;-82
2024/01/02 01:01:54;;;;;;;4.63;2.03;;;4.60;1.00;;;;;;8244553;28;20223;-82
2024/01/02 01:05:55;;;;;;;5.00;1.97;;;4.60;1.00;;;;;;8243946;28;20272;-83
2024/01/02 01:09:59;;;;;;;6.10;2.70;;;4.70;99.90;;;;;;8242726;28;20204;-83
2024/01/02 01:14:00;;;;;;;5.57;2.03;;;4.70;1.00;;;;;;8242574;28;20275;-83
2024/01/02 01:18:04;;;;;;;4.80;1.87;;;4.80;99.90;;;;;;8241233;28;20281;-83
2024/01/02 01:22:07;;;;;;;7.00;1.90;;;4.80;1.00;;;;;;8258674;28;20188;-83
2024/01/02 01:26:08;;;;;;;7.40;1.83;;;4.80;99.90;;;;;;8241765;28;20203;-83
2024/01/02 01:30:09;;;;;;;6.33;1.67;;;4.80;1.00;;;;;;8240787;28;20249;-83
2024/01/02 01:34:10;;;;;;;9.57;2.30;;;4.80;99.90;;;;;;8244349;28;20250;-83
2024/01/02 01:38:11;;;;;;;8.07;2.00;;;4.80;99.90;;;;;;8244259;28;20188;-83
2024/01/02 01:42:12;;;;;;;10.10;2.53;;;4.80;19.40;;;;;;8239972;28;20591;-83
2024/01/02 01:46:15;;;;;;;3.90;1.50;;;4.80;1.00;;;;;;8243397;28;20188;-83
2024/01/02 01:50:16;;;;;;;3.80;1.83;;;4.70;99.90;;;;;;8239475;28;20203;-82
2024/01/02 01:54:18;;;;;;;7.03;1.87;;;4.60;99.90;;;;;;8259128;28;20381;-83
2024/01/02 01:58:19;;;;;;;7.30;2.70;;;4.40;99.90;;;;;;8254897;28;20195;-82
2024/01/02 02:02:23;;;;;;;3.40;1.80;;;4.30;99.90;;;;;;8252524;28;20223;-83
2024/01/02 02:06:24;;;;;;;7.00;2.80;;;4.20;1.00;;;;;;8242482;28;20199;-82
2024/01/02 02:10:25;;;;;;;5.33;2.53;;;4.20;99.90;;;;;;8242952;28;20192;-83
2024/01/02 02:14:26;;;;;;;6.67;2.43;;;4.20;1.00;;;;;;8241100;28;20247;-83
2024/01/02 02:18:29;;;;;;;6.90;1.90;;;4.30;1.00;;;;;;8242261;28;20184;-82
2024/01/02 02:22:38;;;;;;;8.13;2.20;;;4.30;1.00;;;;;;8243691;28;20196;-82
2024/01/02 02:26:38;;;;;;;8.33;2.50;;;4.20;99.90;;;;;;8247364;28;20184;-82
2024/01/02 02:30:39;;;;;;;9.30;2.63;;;4.10;18.40;;;;;;8276416;28;20192;-82
2024/01/02 02:34:40;;;;;;;8.63;2.13;;;4.10;99.90;;;;;;8299051;28;20196;-82
2024/01/02 02:38:41;;;;;;;9.57;2.47;;;4.10;99.90;;;;;;8284401;28;20195;-83
2024/01/02 02:42:41;;;;;;;7.93;2.90;;;4.00;1.00;;;;;;8281317;28;20220;-84
2024/01/02 02:46:42;;;;;;;7.13;2.53;;;3.90;1.00;;;;;;8279047;28;20196;-83
2024/01/02 02:50:43;;;;;;;6.80;2.30;;;3.70;99.90;;;;;;8261818;28;20191;-83
2024/01/02 02:54:44;;;;;;;4.80;2.13;;;3.50;99.90;;;;;;8269980;28;20192;-83
2024/01/02 02:58:54;;;;;;;6.63;2.50;;;3.40;99.90;;;;;;8244875;28;20195;-80
2024/01/02 03:02:57;;;;;;;7.43;2.37;;;3.20;1.00;;;;;;8248672;28;20191;-80
2024/01/02 03:06:58;;;;;;;4.70;1.77;;;3.00;25.70;;;;;;8253638;28;20203;-80
2024/01/02 03:11:00;;;;;;;6.80;1.97;;;2.90;99.90;;;;;;8254191;28;20217;-79
2024/01/02 03:15:01;;;;;;;8.60;2.53;;;2.80;99.90;;;;;;8249571;28;20210;-79
2024/01/02 03:19:02;;;;;;;4.40;1.77;;;2.70;1.00;;;;;;8237260;28;20215;-80
2024/01/02 03:23:03;;;;;;;4.93;1.87;;;2.60;99.90;;;;;;8255194;28;20253;-80
2024/01/02 03:27:04;;;;;;;6.10;2.97;;;2.60;99.90;;;;;;8252725;28;20202;-80
2024/01/02 03:31:06;;;;;;;7.97;2.43;;;2.50;99.50;;;;;;8241098;28;20220;-80
2024/01/02 03:35:07;;;;;;;15.37;2.70;;;2.40;1.00;;;;;;8253399;28;20203;-80
2024/01/02 03:39:07;;;;;;;6.00;2.40;;;2.40;99.90;;;;;;8240140;28;20187;-80
2024/01/02 03:43:08;;;;;;;6.77;2.07;;;2.30;99.90;;;;;;8241878;28;20203;-80
2024/01/02 03:47:09;;;;;;;6.57;2.37;;;2.30;1.00;;;;;;8243006;28;20230;-80
2024/01/02 03:51:11;;;;;;;5.60;1.87;;;2.20;85.00;;;;;;8244486;28;20227;-80
2024/01/02 03:55:12;;;;;;;7.27;2.70;;;2.20;99.90;;;;;;8242405;28;20277;-80
2024/01/02 03:59:13;;;;;;;7.80;3.30;;;2.10;99.90;;;;;;8244825;28;20271;-79
2024/01/02 04:03:13;;;;;;;6.60;3.97;;;2.00;99.90;;;;;;8237923;28;20192;-79
2024/01/02 04:07:14;;;;;;;9.53;4.90;;;2.00;99.90;;;;;;8240590;28;20347;-79
2024/01/02 04:11:16;;;;;;;8.53;3.93;;;1.90;99.90;;;;;;8242655;28;20212;-79
2024/01/02 04:15:17;;;;;;;7.00;3.60;;;1.90;99.90;;;;;;8243406;28;20215;-80
2024/01/02 04:19:18;;;;;;;5.03;3.20;;;1.80;99.90;;;;;;8242213;28;20266;-79
2024/01/02 04:23:19;;;;;;;7.57;3.27;;;1.70;99.90;;;;;;8253765;28;20246;-79
2024/01/02 04:27:23;;;;;;;9.47;2.43;;;1.70;99.90;;;;;;8258670;28;20196;-80
2024/01/02 04:31:23;;;;;;;5.40;2.50;;;1.70;99.90;;;;;;8237582;28;20840;-79
2024/01/02 04:35:27;;;;;;;8.57;2.60;;;1.60;99.90;;;;;;8240667;28;20801;-80
2024/01/02 04:39:28;;;;;;;3.40;1.80;;;1.60;99.90;;;;;;8240357;28;20219;-80
2024/01/02 04:43:29;;;;;;;5.40;2.10;;;1.60;99.90;;;;;;8236321;28;20188;-80
2024/01/02 04:47:30;;;;;;;10.30;2.23;;;1.60;99.90;;;;;;8239615;28;20191;-80
2024/01/02 04:51:31;;;;;;;10.80;2.10;;;1.60;99.90;;;;;;8241515;28;20211;-80
2024/01/02 04:55:32;;;;;;;3.27;1.60;;;1.50;99.90;;;;;;8239058;28;20224;-80
2024/01/02 04:59:33;;;;;;;9.27;2.27;;;1.50;99.90;;;;;;8216957;28;1246863;-80
2024/01/02 05:03:34;;;;;;;6.50;1.77;;;1.50;99.90;;;;;;8243035;28;20500;-80
2024/01/02 05:07:37;;;;;;;7.43;1.83;;;1.50;99.90;;;;;;8259549;28;20188;-79
2024/01/02 05:11:41;;;;;;;8.90;2.40;;;1.60;99.90;;;;;;8240759;28;20350;-80
2024/01/02 05:15:42;;;;;;;6.57;1.83;;;1.60;99.90;;;;;;8257181;28;20258;-80
2024/01/02 05:19:43;;;;;;;8.50;2.20;;;1.60;99.90;;;;;;8258798;28;20211;-83
2024/01/02 05:23:44;;;;;;;7.40;1.83;;;1.60;99.90;;;;;;8252193;28;20215;-82
2024/01/02 05:27:45;;;;;;;5.47;1.53;;;1.60;99.90;;;;;;8281047;28;20203;-83
2024/01/02 05:31:46;;;;;;;5.43;1.93;;;1.60;99.90;;;;;;8284021;28;20227;-83
2024/01/02 05:35:50;;;;;;;3.47;1.67;;;1.60;99.90;;;;;;8282730;28;20254;-84
2024/01/02 05:39:55;;;;;;;5.47;1.90;;;1.50;99.90;;;;;;8269177;28;20276;-83
2024/01/02 05:43:56;;;;;;;6.60;1.70;;;1.50;99.90;;;;;;8264554;28;20180;-83
2024/01/02 05:47:56;;;;;;;6.23;1.87;;;1.40;99.90;;;;;;8262362;28;20218;-83
2024/01/02 05:51:57;;;;;;;5.77;1.93;;;1.30;99.90;;;;;;8252108;28;20208;-83
2024/01/02 05:56:13;;;;;;;2.63;1.50;;;1.30;99.90;;;;;;8253308;28;20194;-82
2024/01/02 06:00:14;;;;;;;4.43;1.93;;;1.30;99.90;;;;;;8253783;28;20286;-83
2024/01/02 06:04:15;;;;;;;2.23;1.43;;;1.20;99.90;;;;;;8263338;28;20199;-84
2024/01/02 06:08:16;;;;;;;5.43;1.70;;;1.30;99.90;;;;;;8262420;28;20275;-84
2024/01/02 06:12:23;;;;;;;3.97;1.80;;;1.30;99.90;;;;;;8272059;28;20199;-84
2024/01/02 06:16:23;;;;;;;5.50;1.77;;;1.30;99.90;;;;;;8250576;28;20546;-83
2024/01/02 06:20:24;;;;;;;8.60;2.17;;;1.30;99.90;;;;;;8269153;28;20262;-84
2024/01/02 06:24:28;;;;;;;5.60;2.20;;;1.30;99.90;;;;;;8273761;28;20188;-84
2024/01/02 06:28:29;;;;;;;8.87;1.70;;;1.40;99.90;;;;;;8240197;28;20188;-80
2024/01/02 06:32:31;;;;;;;3.67;1.70;;;1.50;99.90;;;;;;8236363;28;20216;-82
2024/01/02 06:36:32;;;;;;;3.93;2.10;;;1.50;99.90;;;;;;8245959;28;20620;-81
2024/01/02 06:40:32;;;;;;;5.17;1.80;;;1.50;99.90;;;;;;8236712;28;20188;-82
2024/01/02 06:44:33;;;;;;;5.90;2.67;;;1.50;99.90;;;;;;8238990;28;20240;-81
2024/01/02 06:48:34;;;;;;;6.83;2.27;;;1.50;99.90;;;;;;8238961;28;20188;-81
2024/01/02 06:52:35;;;;;;;6.90;2.70;;;1.60;99.90;;;;;;8237172;28;20211;-81
2024/01/02 06:56:36;;;;;;;7.10;2.97;;;1.60;99.90;;;;;;8240217;28;20191;-81
2024/01/02 07:00:37;;;;;;;4.57;2.63;;;1.60;99.90;;;;;;8236869;28;20790;-81
2024/01/02 07:04:38;;;;;;;6.03;2.23;;;1.70;99.90;;;;;;8246737;28;20262;-81
2024/01/02 07:08:39;;;;;;;6.27;2.40;;;1.70;99.90;;;;;;8240581;28;20199;-82
2024/01/02 07:12:40;;;;;;;6.10;3.60;;;1.80;99.90;;;;;;8241827;28;20222;-81
2024/01/02 07:16:41;;;;;;;21.13;8.37;;;1.80;99.90;;;;;;8253244;28;20230;-80
2024/01/02 07:20:41;;;;;;;20.50;6.20;;;1.80;99.90;;;;;;8235359;28;20273;-79
2024/01/02 07:24:43;;;;;;;11.93;4.40;;;1.80;99.90;;;;;;8253859;28;20269;-79
2024/01/02 07:28:44;;;;;;;7.23;3.10;;;1.90;99.90;;;;;;8235633;28;20794;-79
2024/01/02 07:32:44;;;;;;;7.33;2.97;;;1.90;99.90;;;;;;8237176;28;20243;-79
2024/01/02 07:36:48;;;;;;;4.03;2.00;;;1.90;99.90;;;;;;8249665;28;20199;-82
2024/01/02 07:40:49;;;;;;;6.77;4.03;;;2.00;99.90;;;;;;8236197;28;20187;-82
2024/01/02 07:44:52;;;;;;;19.60;7.43;;;2.10;99.90;;;;;;8251647;28;20195;-82
2024/01/02 07:48:56;;;;;;;11.50;5.53;;;2.20;99.90;;;;;;8254101;28;20225;-82
2024/01/02 07:52:57;;;;;;;14.83;7.23;;;2.20;99.90;;;;;;8248349;28;20310;-82
2024/01/02 07:56:57;;;;;;;15.53;10.17;;;2.30;99.90;;;;;;8232200;28;20269;-82
2024/01/02 08:00:59;;;;;;;15.87;7.53;;;2.40;99.90;;;;;;8241815;28;20294;-82
2024/01/02 08:05:00;;;;;;;16.70;8.10;;;2.50;99.90;;;;;;8236973;28;20179;-83
2024/01/02 08:09:00;;;;;;;33.67;16.00;;;2.60;99.90;;;;;;8253037;28;20192;-81
2024/01/02 08:13:04;;;;;;;30.97;16.40;;;2.70;99.90;;;;;;8252128;28;20247;-82
2024/01/02 08:17:05;;;;;;;28.70;10.07;;;2.90;99.90;;;;;;8253491;28;20208;-82
2024/01/02 08:21:07;;;;;;;14.73;5.07;;;3.00;99.90;;;;;;8266897;28;20185;-81
2024/01/02 08:25:08;;;;;;;9.63;4.40;;;3.10;99.90;;;;;;8283610;28;20288;-82
2024/01/02 08:29:09;;;;;;;27.13;14.47;;;3.10;99.90;;;;;;8286709;28;20274;-82
2024/01/02 08:33:13;;;;;;;29.67;16.63;;;3.20;99.90;;;;;;8286090;28;20227;-82
2024/01/02 08:37:14;;;;;;;75.27;44.87;;;3.30;99.90;;;;;;8300843;28;20196;-82
2024/01/02 08:41:14;;;;;;;44.03;20.47;;;3.40;99.90;;;;;;8262021;28;20200;-82
2024/01/02 08:45:25;;;;;;;;;;;;;;;;;;;;;
2024/01/02 08:49:27;;;;;;;39.97;23.50;;;3.50;99.90;;;;;;8255025;28;20184;-81
2024/01/02 08:53:28;;;;;;;31.70;21.40;;;3.60;99.90;;;;;;8253827;28;20216;-83
2024/01/02 08:57:32;;;;;;;29.60;14.07;;;3.70;99.90;;;;;;8249368;28;20270;-83
2024/01/02 09:01:36;;;;;;;40.73;22.50;;;3.90;99.90;;;;;;8234223;28;20212;-83
2024/01/02 09:05:37;;;;;;;26.63;15.43;;;3.90;99.90;;;;;;8242130;28;20238;-83
2024/01/02 09:09:38;;;;;;;17.23;11.67;;;4.00;99.90;;;;;;8244714;28;20195;-81
2024/01/02 09:13:39;;;;;;;16.07;8.40;;;4.00;99.90;;;;;;8237491;28;20219;-81
2024/01/02 09:17:40;;;;;;;20.00;11.07;;;4.10;99.90;;;;;;8242231;28;20215;-83
2024/01/02 09:21:41;;;;;;;15.30;7.77;;;4.20;99.90;;;;;;8260618;28;20207;-80
2024/01/02 09:25:46;;;;;;;14.90;8.23;;;4.20;99.90;;;;;;8258067;28;20203;-82
2024/01/02 09:29:47;;;;;;;29.20;17.30;;;4.30;99.90;;;;;;8257820;28;20202;-82
2024/01/02 09:33:47;;;;;;;12.30;7.97;;;4.40;99.90;;;;;;8247335;28;20219;-82
2024/01/02 09:37:48;;;;;;;13.13;9.00;;;4.40;99.90;;;;;;8253728;28;20196;-82
2024/01/02 09:42:15;;;;;;;15.70;10.20;;;4.50;99.90;;;;;;8244513;28;20192;-82
2024/01/02 09:46:44;;;;;;;10.67;7.03;;;4.60;99.90;;;;;;8244331;28;20194;-82
2024/01/02 09:50:56;;;;;;;11.00;5.73;;;4.70;99.90;;;;;;8243688;28;20204;-82
2024/01/02 09:55:29;;;;;;;9.17;5.60;;;4.80;99.90;;;;;;8240757;28;20192;-81
2024/01/02 09:59:43;;;;;;;10.67;5.63;;;4.90;99.90;;;;;;8241729;28;20211;-81
2024/01/02 10:03:49;;;;;;;10.07;5.27;;;5.00;99.90;;;;;;8254898;28;20193;-81
2024/01/02 10:08:00;;;;;;;16.07;5.73;;;5.00;99.90;;;;;;8243489;28;20192;-82
2024/01/02 10:12:30;;;;;;;52.77;29.00;;;5.10;99.90;;;;;;8238544;28;20209;-81
2024/01/02 10:16:46;;;;;;;18.63;10.63;;;5.10;99.90;;;;;;8252933;28;20252;-83
2024/01/02 10:21:06;;;;;;;11.70;7.73;;;5.10;99.90;;;;;;8259171;28;20184;-82
2024/01/02 10:25:14;;;;;;;17.60;11.43;;;5.10;99.90;;;;;;8235373;28;20200;-82
2024/01/02 10:29:28;;;;;;;14.07;8.13;;;5.10;99.90;;;;;;8239426;28;20192;-82
2024/01/02 10:33:39;;;;;;;16.00;8.73;;;5.10;99.90;;;;;;8240091;28;20215;-83
2024/01/02 10:38:10;;;;;;;12.43;7.90;;;5.10;99.90;;;;;;8240814;28;20283;-84
2024/01/02 10:42:33;;;;;;;14.13;7.77;;;5.20;99.90;;;;;;8236852;28;20218;-83
2024/01/02 10:47:05;;;;;;;14.77;8.63;;;5.40;99.90;;;;;;8257358;28;20191;-82
2024/01/02 10:51:10;;;;;;;13.93;8.37;;;5.40;99.90;;;;;;8236614;28;20196;-82
2024/01/02 10:55:28;;;;;;;16.37;8.83;;;5.60;99.90;;;;;;8237847;28;20590;-82
2024/01/02 10:59:47;;;;;;;17.43;10.50;;;5.80;99.90;;;;;;8239307;28;20199;-82
2024/01/02 11:04:31;;;;;;;18.70;10.10;;;6.00;99.90;;;;;;8248531;28;20200;-81
2024/01/02 11:08:50;;;;;;;19.33;11.70;;;6.10;99.90;;;;;;8248949;28;20290;-78
2024/01/02 11:13:07;;;;;;;16.40;10.20;;;6.10;99.90;;;;;;8238903;28;20203;-78
2024/01/02 11:17:12;;;;;;;13.70;8.77;;;6.10;99.90;;;;;;8241429;28;20212;-79
2024/01/02 11:21:38;;;;;;;11.63;5.87;;;6.00;99.90;;;;;;8246352;28;20187;-79
2024/01/02 11:26:07;;;;;;;7.67;5.53;;;6.10;99.90;;;;;;8239162;28;20341;-80
2024/01/02 11:30:11;;;;;;;10.17;6.30;;;6.20;99.90;;;;;;8242144;28;20195;-78
2024/01/02 11:34:30;;;;;;;9.57;5.63;;;6.40;99.90;;;;;;8262778;28;20294;-78
2024/01/02 11:38:45;;;;;;;7.90;5.00;;;6.40;99.90;;;;;;8253677;28;20168;-78
2024/01/02 11:42:46;;;;;;;9.10;4.20;;;6.40;99.90;;;;;;8281362;28;20207;-80
2024/01/02 11:46:51;;;;;;;8.53;5.27;;;6.40;99.90;;;;;;8288343;28;20196;-78
2024/01/02 11:50:54;;;;;;;8.57;6.30;;;6.20;99.90;;;;;;8255143;28;20528;-78
2024/01/02 11:55:02;;;;;;;10.30;6.37;;;6.20;99.90;;;;;;8258741;28;20255;-78
2024/01/02 11:59:39;;;;;;;10.73;7.50;;;6.20;99.90;;;;;;8241239;28;20821;-79
2024/01/02 12:04:05;;;;;;;11.23;6.70;;;6.20;99.90;;;;;;8253727;28;20283;-79
2024/01/02 12:08:13;;;;;;;12.10;6.10;;;6.30;99.90;;;;;;8254867;28;20192;-79
2024/01/02 12:12:58;;;;;;;9.23;5.70;;;6.20;99.90;;;;;;8260038;28;20251;-78
2024/01/02 12:17:03;;;;;;;12.73;8.13;;;6.20;99.90;;;;;;8227515;28;20215;-82
2024/01/02 12:21:09;;;;;;;11.60;7.80;;;6.20;99.90;;;;;;8263437;28;21387;-82
2024/01/02 12:25:13;;;;;;;10.03;7.43;;;6.20;99.90;;;;;;8261108;28;20187;-82
2024/01/02 12:29:38;;;;;;;10.60;7.83;;;6.10;99.90;;;;;;8248026;28;20724;-81
2024/01/02 12:33:46;;;;;;;16.13;8.80;;;6.10;99.90;;;;;;8248698;28;20331;-81
2024/01/02 12:37:55;;;;;;;11.77;8.03;;;6.20;99.90;;;;;;8249858;28;20238;-81
2024/01/02 12:41:59;;;;;;;16.37;10.67;;;6.20;99.90;;;;;;8249958;28;20203;-81
2024/01/02 12:46:19;;;;;;;8.90;6.43;;;6.20;99.90;;;;;;8247713;28;20199;-82
2024/01/02 12:50:21;;;;;;;9.13;6.43;;;6.20;99.90;;;;;;8263621;28;20206;-82
2024/01/02 12:54:23;;;;;;;12.07;9.43;;;6.40;99.90;;;;;;8251074;28;20229;-82
2024/01/02 12:58:30;;;;;;;8.67;5.87;;;6.50;99.90;;;;;;8245039;28;20184;-82
2024/01/02 13:02:36;;;;;;;8.57;4.80;;;6.50;99.90;;;;;;8249128;28;20308;-82
2024/01/02 13:06:37;;;;;;;7.87;4.57;;;6.50;99.90;;;;;;8245099;28;20482;-82
2024/01/02 13:10:41;;;;;;;8.60;5.97;;;6.50;99.90;;;;;;8245872;28;20196;-82
2024/01/02 13:14:44;;;;;;;9.27;5.20;;;6.60;99.90;;;;;;8246328;28;20249;-82
2024/01/02 13:18:49;;;;;;;7.43;4.37;;;6.50;99.90;;;;;;8261252;28;20216;-82
2024/01/02 13:22:53;;;;;;;17.37;10.23;;;6.40;99.90;;;;;;8263638;28;20192;-81
2024/01/02 13:26:53;;;;;;;58.73;25.67;;;6.40;99.90;;;;;;8261007;28;20188;-79
2024/01/02 13:30:56;;;;;;;106.67;37.93;;;6.40;99.90;;;;;;8261971;28;20270;-78
2024/01/02 13:35:15;;;;;;;130.97;45.13;;;6.40;99.90;;;;;;8239115;28;20215;-78
2024/01/02 13:39:38;;;;;;;65.67;30.77;;;6.30;99.90;;;;;;8238905;28;20360;-78
2024/01/02 13:43:40;;;;;;;41.17;21.00;;;6.30;99.90;;;;;;8257747;28;20196;-78
2024/01/02 13:47:41;;;;;;;9.43;5.50;;;6.30;99.90;;;;;;8237263;28;20196;-78
2024/01/02 13:51:46;;;;;;;7.93;3.90;;;6.20;99.90;;;;;;8242230;28;20212;-78
2024/01/02 13:55:47;;;;;;;9.10;4.70;;;6.20;99.90;;;;;;8259058;28;20196;-78
2024/01/02 13:59:48;;;;;;;6.30;4.33;;;6.10;99.90;;;;;;8243413;28;20207;-79
2024/01/02 14:03:48;;;;;;;6.23;3.70;;;6.00;99.90;;;;;;8256210;28;20192;-78
2024/01/02 14:07:51;;;;;;;8.03;5.47;;;6.00;99.90;;;;;;8234715;28;20200;-79
2024/01/02 14:12:00;;;;;;;7.30;4.97;;;5.90;99.90;;;;;;8230508;28;20315;-79
2024/01/02 14:16:05;;;;;;;12.07;6.83;;;5.90;99.90;;;;;;8240189;28;20207;-79
2024/01/02 14:20:11;;;;;;;16.47;9.47;;;5.90;99.90;;;;;;8235635;28;20246;-79
2024/01/02 14:24:23;;;;;;;32.73;14.03;;;5.90;99.90;;;;;;8248227;28;20187;-79
2024/01/02 14:28:26;;;;;;;59.23;25.27;;;5.80;99.90;;;;;;8236769;28;20207;-79
2024/01/02 14:32:52;;;;;;;104.57;36.67;;;5.70;99.90;;;;;;8247775;28;20213;-78
2024/01/02 14:37:03;;;;;;;25.13;14.50;;;5.70;99.90;;;;;;8281032;28;20199;-79
2024/01/02 14:41:08;;;;;;;10.63;6.90;;;5.70;99.90;;;;;;8291983;28;20168;-78
2024/01/02 14:45:12;;;;;;;20.97;12.97;;;5.60;99.90;;;;;;8278376;28;20232;-79
2024/01/02 14:49:48;;;;;;;21.67;14.50;;;5.60;99.90;;;;;;8295851;28;20272;-81
2024/01/02 14:54:14;;;;;;;28.87;19.53;;;5.50;99.90;;;;;;8247708;28;20658;-79
2024/01/02 14:58:29;;;;;;;17.87;12.10;;;5.50;99.90;;;;;;8217217;28;20200;-80
2024/01/02 15:03:08;;;;;;;12.53;9.50;;;5.50;99.90;;;;;;8254268;28;20235;-79
2024/01/02 15:07:14;;;;;;;9.47;6.70;;;5.40;99.90;;;;;;8241865;28;20199;-79
2024/01/02 15:11:52;;;;;;;8.80;5.20;;;5.40;99.90;;;;;;8255288;28;20195;-80
2024/01/02 15:16:26;;;;;;;7.20;4.63;;;5.40;99.90;;;;;;8257832;28;20217;-79
2024/01/02 15:20:53;;;;;;;7.77;4.87;;;5.40;99.90;;;;;;8236453;28;20185;-79
2024/01/02 15:25:28;;;;;;;9.30;5.37;;;5.40;99.90;;;;;;8206091;28;20192;-79
2024/01/02 15:29:37;;;;;;;6.63;4.40;;;5.30;99.90;;;;;;8237497;28;20215;-79
2024/01/02 15:33:41;;;;;;;7.80;5.07;;;5.30;99.90;;;;;;8237810;28;20219;-79
2024/01/02 15:37:52;;;;;;;7.67;5.07;;;5.20;99.90;;;;;;8241771;28;20188;-80
2024/01/02 15:42:04;;;;;;;7.23;5.00;;;5.20;99.90;;;;;;8247629;28;20188;-79
2024/01/02 15:46:34;;;;;;;8.47;4.93;;;5.10;99.90;;;;;;8237230;28;20201;-79
2024/01/02 15:50:39;;;;;;;6.17;4.53;;;5.10;99.90;;;;;;8245252;28;20257;-79
2024/01/02 15:54:50;;;;;;;6.63;5.00;;;5.10;99.90;;;;;;8258427;28;20355;-79
2024/01/02 15:59:10;;;;;;;7.03;4.63;;;5.10;99.90;;;;;;8261766;28;20184;-79
2024/01/02 16:03:54;;;;;;;7.90;5.27;;;5.00;99.90;;;;;;8243961;28;20204;-79
2024/01/02 16:08:26;;;;;;;8.70;6.17;;;5.00;99.90;;;;;;8253099;28;20198;-81
2024/01/02 16:12:59;;;;;;;7.40;5.40;;;5.00;99.90;;;;;;8239267;28;20219;-79
2024/01/02 16:17:23;;;;;;;9.47;6.20;;;5.00;99.90;;;;;;8239005;28;20222;-79
2024/01/02 16:21:46;;;;;;;8.90;5.77;;;4.90;99.90;;;;;;8252593;28;20358;-79
2024/01/02 16:25:53;;;;;;;9.63;5.80;;;4.90;99.90;;;;;;8255849;28;20212;-79
2024/01/02 16:30:05;;;;;;;8.60;5.87;;;4.90;99.90;;;;;;8233237;28;20200;-78
2024/01/02 16:34:29;;;;;;;10.00;6.30;;;4.90;99.90;;;;;;8241565;28;20219;-79
2024/01/02 16:38:30;;;;;;;12.80;8.13;;;4.80;99.90;;;;;;8242819;28;20193;-79
2024/01/02 16:42:40;;;;;;;14.03;8.53;;;4.80;99.90;;;;;;8240564;28;20215;-77
2024/01/02 16:46:47;;;;;;;13.20;8.17;;;4.80;99.90;;;;;;8262324;28;20261;-78
2024/01/02 16:50:52;;;;;;;11.63;7.33;;;4.70;99.90;;;;;;8239162;28;20195;-79
2024/01/02 16:54:57;;;;;;;11.07;7.47;;;4.80;99.90;;;;;;8239260;28;20277;-78
2024/01/02 16:58:58;;;;;;;14.33;8.77;;;4.70;99.90;;;;;;8244026;28;20222;-83
2024/01/02 17:03:04;;;;;;;10.87;7.50;;;4.70;99.90;;;;;;8241872;28;20283;-83
2024/01/02 17:07:05;;;;;;;11.73;7.23;;;4.80;99.90;;;;;;8238231;28;20205;-83
2024/01/02 17:11:14;;;;;;;10.93;6.53;;;4.80;99.90;;;;;;8256498;28;20199;-84
2024/01/02 17:15:16;;;;;;;11.87;7.30;;;4.80;99.90;;;;;;8243663;28;20216;-83
2024/01/02 17:19:17;;;;;;;8.10;5.67;;;4.80;99.90;;;;;;8243831;28;20220;-83
2024/01/02 17:23:23;;;;;;;11.30;6.00;;;4.80;99.90;;;;;;8243737;28;20277;-83
2024/01/02 17:27:25;;;;;;;8.87;5.70;;;4.90;99.90;;;;;;8240852;28;20464;-82
2024/01/02 17:31:27;;;;;;;10.30;6.00;;;4.90;99.90;;;;;;8251406;28;20525;-83
2024/01/02 17:35:32;;;;;;;10.50;5.67;;;4.90;99.90;;;;;;8249999;28;20612;-82
2024/01/02 17:39:33;;;;;;;8.60;5.67;;;4.90;99.90;;;;;;8243222;28;20251;-83
2024/01/02 17:43:36;;;;;;;9.90;5.87;;;4.90;99.90;;;;;;8237961;28;20225;-83
2024/01/02 17:47:37;;;;;;;10.57;5.93;;;4.90;99.90;;;;;;8261566;28;20191;-81
2024/01/02 17:51:39;;;;;;;9.50;6.07;;;4.90;99.90;;;;;;8278522;28;20517;-82
2024/01/02 17:55:40;;;;;;;7.40;5.50;;;4.90;99.90;;;;;;8278527;28;20243;-82
2024/01/02 17:59:44;;;;;;;10.97;6.50;;;5.00;99.90;;;;;;8279188;28;20198;-82
2024/01/02 18:04:17;;;;;;;9.57;5.87;;;5.00;99.90;;;;;;8278608;28;20482;-82
2024/01/02 18:08:24;;;;;;;9.07;5.97;;;5.00;99.90;;;;;;8263042;28;20203;-82
2024/01/02 18:12:42;;;;;;;8.67;6.70;;;4.90;99.90;;;;;;8249770;28;20242;-82
2024/01/02 18:16:55;;;;;;;8.10;5.87;;;5.00;99.90;;;;;;8259625;28;20212;-82
2024/01/02 18:21:05;;;;;;;9.73;6.37;;;5.00;99.90;;;;;;8243101;28;20247;-83
2024/01/02 18:25:36;;;;;;;9.60;6.27;;;5.00;99.90;;;;;;8246579;28;20241;-82
2024/01/02 18:30:03;;;;;;;9.10;6.47;;;5.00;99.90;;;;;;8241541;28;20199;-83
2024/01/02 18:34:22;;;;;;;9.33;6.60;;;5.00;99.90;;;;;;8241143;28;20587;-80
2024/01/02 18:39:07;;;;;;;9.67;6.43;;;5.00;99.90;;;;;;8234914;28;20195;-79
2024/01/02 18:43:15;;;;;;;11.50;7.90;;;5.00;99.90;;;;;;8231750;28;20207;-79
2024/01/02 18:47:35;;;;;;;11.10;7.30;;;5.00;99.90;;;;;;8241738;28;20207;-80
2024/01/02 18:51:41;;;;;;;13.70;8.97;;;5.00;99.90;;;;;;8240930;28;20203;-81
2024/01/02 18:55:42;;;;;;;10.27;7.60;;;5.00;99.90;;;;;;8242381;28;20195;-79
2024/01/02 18:59:43;;;;;;;11.83;8.43;;;5.00;99.90;;;;;;8238652;28;20206;-79
2024/01/02 19:03:46;;;;;;;14.33;9.40;;;5.00;99.90;;;;;;8257363;28;20234;-79
2024/01/02 19:08:10;;;;;;;13.17;8.40;;;5.00;99.90;;;;;;8238997;28;20199;-79
2024/01/02 19:12:17;;;;;;;13.47;8.27;;;5.00;99.90;;;;;;8253526;28;20279;-82
2024/01/02 19:16:18;;;;;;;10.90;8.17;;;5.10;99.90;;;;;;8255545;28;20211;-80
2024/01/02 19:20:22;;;;;;;12.47;8.87;;;5.00;99.90;;;;;;8254507;28;20238;-82
2024/01/02 19:24:23;;;;;;;13.07;9.00;;;5.00;99.90;;;;;;8259406;28;20238;-81
2024/01/02 19:28:27;;;;;;;12.80;8.43;;;5.00;99.90;;;;;;8240258;28;20326;-81
2024/01/02 19:32:28;;;;;;;13.27;9.20;;;5.00;99.90;;;;;;8236295;28;20207;-81
2024/01/02 19:36:29;;;;;;;11.30;8.70;;;5.00;99.90;;;;;;8239770;28;20194;-82
2024/01/02 19:40:31;;;;;;;12.27;8.23;;;5.00;99.90;;;;;;8242435;28;20214;-82
2024/01/02 19:44:36;;;;;;;10.07;7.60;;;5.10;99.90;;;;;;8237375;28;20259;-82
2024/01/02 19:48:39;;;;;;;11.43;7.00;;;5.10;99.90;;;;;;8236506;28;20251;-81
2024/01/02 19:52:43;;;;;;;10.13;6.27;;;5.20;99.90;;;;;;8235578;28;20219;-81
2024/01/02 19:56:47;;;;;;;7.10;4.73;;;5.20;99.90;;;;;;8237293;28;20290;-81
2024/01/02 20:00:52;;;;;;;6.13;3.23;;;5.30;99.90;;;;;;8255123;28;20250;-81
2024/01/02 20:04:59;;;;;;;3.73;2.47;;;5.50;99.90;;;;;;8250979;28;21772;-81
2024/01/02 20:09:01;;;;;;;2.53;1.80;;;5.60;99.90;;;;;;8238880;28;20207;-81
2024/01/02 20:13:18;;;;;;;3.13;1.53;;;5.80;99.90;;;;;;8236337;28;20204;-81
2024/01/02 20:17:20;;;;;;;2.40;1.50;;;5.90;99.90;;;;;;8233046;28;20216;-81
2024/01/02 20:21:22;;;;;;;1.83;1.37;;;6.00;99.90;;;;;;8240187;28;20422;-81
2024/01/02 20:25:45;;;;;;;2.20;1.30;;;6.10;99.90;;;;;;8246765;28;20188;-81
2024/01/02 20:29:52;;;;;;;1.37;1.00;;;6.10;99.90;;;;;;8263618;28;20187;-80
2024/01/02 20:33:59;;;;;;;1.63;1.30;;;6.20;99.90;;;;;;8246862;28;20262;-82
2024/01/02 20:38:00;;;;;;;2.53;1.40;;;6.20;99.90;;;;;;8248243;28;20230;-81
2024/01/02 20:42:05;;;;;;;2.90;2.00;;;6.20;99.90;;;;;;8248522;28;20191;-81
2024/01/02 20:46:07;;;;;;;4.20;2.50;;;6.20;99.90;;;;;;8239234;28;20278;-81
2024/01/02 20:50:26;;;;;;;4.10;2.20;;;6.20;99.90;;;;;;8258696;28;20184;-81
2024/01/02 20:54:29;;;;;;;3.00;1.87;;;6.20;99.90;;;;;;8261943;28;20250;-81
2024/01/02 20:58:38;;;;;;;3.23;1.87;;;6.20;99.90;;;;;;8245498;28;20186;-81
2024/01/02 21:02:39;;;;;;;2.00;1.60;;;6.10;99.90;;;;;;8270693;28;20271;-81
2024/01/02 21:06:41;;;;;;;3.77;2.30;;;6.10;99.90;;;;;;8304289;28;20192;-81
2024/01/02 21:10:54;;;;;;;3.90;1.93;;;6.10;99.90;;;;;;8284808;28;20176;-81
2024/01/02 21:15:10;;;;;;;3.30;2.03;;;6.10;99.90;;;;;;8281940;28;20223;-81
2024/01/02 21:19:58;;;;;;;2.70;1.73;;;6.10;99.90;;;;;;8243362;28;20215;-81
2024/01/02 21:24:04;;;;;;;2.90;1.53;;;6.10;99.90;;;;;;8257553;28;20202;-82
2024/01/02 21:28:12;;;;;;;3.17;1.57;;;6.10;99.90;;;;;;8245480;28;20192;-82
2024/01/02 21:32:16;;;;;;;2.70;1.90;;;6.10;99.90;;;;;;8260739;28;20227;-81
2024/01/02 21:36:25;;;;;;;2.37;1.60;;;6.10;99.90;;;;;;8244202;28;20219;-78